createdAt,value
2022-08-14T00:02:24.654Z,101492.59
2022-08-14T00:04:59.710Z,101490.09
2022-08-14T00:07:31.778Z,101485.84
2022-08-14T00:10:49.747Z,101486.81
2022-08-14T00:13:06.800Z,101486.81
2022-08-14T00:15:48.413Z,101478.00
2022-08-14T00:18:30.966Z,101487.03
2022-08-14T00:21:15.976Z,101479.97
2022-08-14T00:23:53.796Z,101481.78
2022-08-14T00:26:26.344Z,101474.69
2022-08-14T00:28:58.360Z,101480.81
2022-08-14T00:31:44.474Z,101486.13
2022-08-14T00:34:37.243Z,101484.44
2022-08-14T00:37:10.049Z,101489.72
2022-08-14T00:39:42.604Z,101486.25
2022-08-14T00:42:21.269Z,101484.44
2022-08-14T00:45:11.464Z,101484.44
2022-08-14T00:47:48.305Z,101479.09
2022-08-14T00:50:22.133Z,101475.41
2022-08-14T00:52:54.369Z,101472.97
2022-08-14T00:55:30.006Z,101472.09
2022-08-14T00:58:32.882Z,101470.38
2022-08-14T01:01:11.086Z,101468.81
2022-08-14T01:03:43.760Z,101461.75
2022-08-14T01:06:18.559Z,101456.31
2022-08-14T01:08:58.147Z,101457.34
2022-08-14T01:11:36.123Z,101457.34
2022-08-14T01:14:25.654Z,101451.13
2022-08-14T01:17:00.488Z,101450.38
2022-08-14T01:19:50.805Z,101460.19
2022-08-14T01:22:26.959Z,101452.50
2022-08-14T01:25:01.496Z,101447.41
2022-08-14T01:27:41.007Z,101450.25
2022-08-14T01:30:28.226Z,101448.63
2022-08-14T01:33:00.278Z,101443.44
2022-08-14T01:36:05.388Z,101447.06
2022-08-14T01:38:26.501Z,101438.31
2022-08-14T01:40:58.838Z,101436.53
2022-08-14T01:43:31.035Z,101434.19
2022-08-14T01:46:11.605Z,101422.97
2022-08-14T01:48:57.525Z,101426.31
2022-08-14T01:51:33.729Z,101415.63
2022-08-14T01:54:14.196Z,101417.44
2022-08-14T01:56:47.090Z,101417.59
2022-08-14T01:59:24.104Z,101413.22
2022-08-14T02:02:09.986Z,101414.25
2022-08-14T02:04:55.529Z,101418.19
2022-08-14T02:07:44.648Z,101404.91
2022-08-14T02:10:26.253Z,101402.47
2022-08-14T02:12:59.590Z,101408.75
2022-08-14T02:15:31.725Z,101403.50
2022-08-14T02:18:04.500Z,101406.41
2022-08-14T02:20:36.537Z,101410.19
2022-08-14T02:23:09.058Z,101404.94
2022-08-14T02:25:41.174Z,101407.00
2022-08-14T02:28:24.233Z,101395.59
2022-08-14T02:31:09.120Z,101396.88
2022-08-14T02:33:43.001Z,101397.13
2022-08-14T02:37:04.922Z,101395.66
2022-08-14T02:39:10.755Z,101401.06
2022-08-14T02:41:52.440Z,101396.72
2022-08-14T02:44:29.735Z,101391.47
2022-08-14T02:47:03.015Z,101389.66
2022-08-14T02:49:39.708Z,101381.56
2022-08-14T02:52:56.753Z,101385.09
2022-08-14T02:55:07.317Z,101382.59
2022-08-14T02:57:41.061Z,101384.47
2022-08-14T03:00:18.542Z,101382.75
2022-08-14T03:02:58.923Z,101381.19
2022-08-14T03:05:35.992Z,101383.06
2022-08-14T03:08:15.346Z,101377.81
2022-08-14T03:10:50.006Z,101376.94
2022-08-14T03:13:22.315Z,101370.03
2022-08-14T03:15:57.876Z,101362.91
2022-08-14T03:18:32.607Z,101359.44
2022-08-14T03:21:08.042Z,101353.94
2022-08-14T03:23:41.725Z,101350.41
2022-08-14T03:26:29.883Z,101347.81
2022-08-14T03:29:03.831Z,101348.75
2022-08-14T03:31:36.554Z,101340.75
2022-08-14T03:34:24.650Z,101339.91
2022-08-14T03:37:51.539Z,101339.09
2022-08-14T03:39:56.624Z,101333.91
2022-08-14T03:42:31.049Z,101326.84
2022-08-14T03:45:20.348Z,101332.25
2022-08-14T03:48:27.463Z,101332.41
2022-08-14T03:51:03.416Z,101327.16
2022-08-14T03:53:38.060Z,101328.97
2022-08-14T03:56:14.447Z,101324.03
2022-08-14T03:59:18.094Z,101321.59
2022-08-14T04:01:57.972Z,101313.69
2022-08-14T04:04:34.014Z,101308.41
2022-08-14T04:07:05.993Z,101310.38
2022-08-14T04:09:38.430Z,101311.41
2022-08-14T04:12:13.476Z,101311.56
2022-08-14T04:14:46.364Z,101304.66
2022-08-14T04:17:20.236Z,101309.28
2022-08-14T04:19:54.434Z,101314.78
2022-08-14T04:22:26.497Z,101309.81
2022-08-14T04:25:04.902Z,101310.59
2022-08-14T04:28:01.942Z,101307.84
2022-08-14T04:30:32.655Z,101311.41
2022-08-14T04:33:15.866Z,101299.72
2022-08-14T04:35:56.337Z,101295.00
2022-08-14T04:38:47.301Z,101295.78
2022-08-14T04:41:53.926Z,101293.38
2022-08-14T04:44:26.674Z,101300.28
2022-08-14T04:47:27.105Z,101291.47
2022-08-14T04:50:06.739Z,101287.00
2022-08-14T04:52:39.447Z,101287.00
2022-08-14T04:55:11.604Z,101283.25
2022-08-14T04:57:43.595Z,101285.91
2022-08-14T05:00:18.116Z,101287.72
2022-08-14T05:02:50.292Z,101282.38
2022-08-14T05:05:23.247Z,101289.34
2022-08-14T05:08:01.790Z,101283.88
2022-08-14T05:10:33.960Z,101280.16
2022-08-14T05:13:13.449Z,101275.53
2022-08-14T05:15:47.940Z,101273.66
2022-08-14T05:18:37.192Z,101276.94
2022-08-14T05:22:00.240Z,101280.47
2022-08-14T05:24:17.823Z,101287.28
2022-08-14T05:26:50.957Z,101285.31
2022-08-14T05:29:23.727Z,101286.97
2022-08-14T05:31:57.361Z,101280.59
2022-08-14T05:34:31.566Z,101281.31
2022-08-14T05:37:06.820Z,101289.00
2022-08-14T05:39:41.316Z,101288.75
2022-08-14T05:42:22.200Z,101279.47
2022-08-14T05:44:59.892Z,101272.09
2022-08-14T05:47:34.170Z,101267.31
2022-08-14T05:50:17.372Z,101265.25
2022-08-14T05:52:51.621Z,101265.06
2022-08-14T05:55:24.079Z,101266.53
2022-08-14T05:57:59.959Z,101270.06
2022-08-14T06:00:40.113Z,101276.19
2022-08-14T06:03:16.545Z,101266.72
2022-08-14T06:05:53.309Z,101262.06
2022-08-14T06:08:36.301Z,101260.84
2022-08-14T06:11:14.935Z,101258.88
2022-08-14T06:13:52.600Z,101265.78
2022-08-14T06:16:24.564Z,101267.41
2022-08-14T06:18:59.656Z,101268.97
2022-08-14T06:21:31.796Z,101264.38
2022-08-14T06:24:05.269Z,101252.63
2022-08-14T06:26:42.582Z,101258.38
2022-08-14T06:29:24.017Z,101258.19
2022-08-14T06:32:00.393Z,101257.44
2022-08-14T06:35:03.661Z,101261.13
2022-08-14T06:37:51.969Z,101255.44
2022-08-14T06:40:28.772Z,101261.97
2022-08-14T06:43:07.446Z,101259.59
2022-08-14T06:45:42.073Z,101250.44
2022-08-14T06:48:24.098Z,101246.91
2022-08-14T06:50:57.823Z,101257.50
2022-08-14T06:53:30.212Z,101253.88
2022-08-14T06:56:02.586Z,101253.81
2022-08-14T06:58:35.709Z,101255.38
2022-08-14T07:01:27.910Z,101255.88
2022-08-14T07:04:23.749Z,101248.72
2022-08-14T07:06:59.598Z,101253.34
2022-08-14T07:09:43.647Z,101259.00
2022-08-14T07:12:55.083Z,101258.91
2022-08-14T07:15:15.594Z,101258.22
2022-08-14T07:17:52.141Z,101256.22
2022-08-14T07:20:31.165Z,101255.47
2022-08-14T07:23:10.831Z,101252.56
2022-08-14T07:25:44.822Z,101247.59
2022-08-14T07:28:29.718Z,101246.94
2022-08-14T07:31:05.828Z,101249.13
2022-08-14T07:33:50.814Z,101252.47
2022-08-14T07:36:30.320Z,101261.78
2022-08-14T07:39:13.179Z,101253.75
2022-08-14T07:41:45.346Z,101257.28
2022-08-14T07:44:32.567Z,101256.81
2022-08-14T07:47:08.085Z,101265.22
2022-08-14T07:49:41.531Z,101253.84
2022-08-14T07:52:15.495Z,101261.09
2022-08-14T07:54:55.013Z,101261.88
2022-08-14T07:57:27.886Z,101270.97
2022-08-14T07:59:59.928Z,101272.28
2022-08-14T08:02:32.837Z,101253.25
2022-08-14T08:05:06.767Z,101258.88
2022-08-14T08:07:40.528Z,101256.13
2022-08-14T08:11:02.469Z,101258.59
2022-08-14T08:13:29.349Z,101252.25
2022-08-14T08:16:03.370Z,101250.13
2022-08-14T08:18:36.309Z,101248.72
2022-08-14T08:21:08.527Z,101249.00
2022-08-14T08:23:43.570Z,101248.91
2022-08-14T08:26:30.937Z,101252.34
2022-08-14T08:29:03.142Z,101241.66
2022-08-14T08:31:49.002Z,101243.09
2022-08-14T08:34:24.330Z,101243.31
2022-08-14T08:37:01.679Z,101244.34
2022-08-14T08:40:01.732Z,101234.25
2022-08-14T08:42:41.190Z,101240.34
2022-08-14T08:45:17.863Z,101240.72
2022-08-14T08:47:51.295Z,101228.06
2022-08-14T08:53:11.125Z,101224.50
2022-08-14T08:55:45.990Z,101216.63
2022-08-14T08:58:20.259Z,101209.47
2022-08-14T09:01:00.180Z,101210.31
2022-08-14T09:03:32.419Z,101210.22
2022-08-14T09:06:53.826Z,101202.19
2022-08-14T09:08:58.033Z,101199.50
2022-08-14T09:11:30.449Z,101198.13
2022-08-14T09:14:05.596Z,101194.03
2022-08-14T09:16:37.939Z,101190.00
2022-08-14T09:19:10.938Z,101202.66
2022-08-14T09:21:43.011Z,101196.81
2022-08-14T09:24:28.094Z,101190.69
2022-08-14T09:27:06.753Z,101190.69
2022-08-14T09:29:39.121Z,101171.47
2022-08-14T09:32:57.951Z,101170.38
2022-08-14T09:35:39.375Z,101153.94
2022-08-14T09:39:21.161Z,101145.72
2022-08-14T09:42:33.814Z,101147.50
2022-08-14T09:45:20.168Z,101148.28
2022-08-14T09:47:55.705Z,101142.22
2022-08-14T09:50:48.878Z,101146.41
2022-08-14T09:54:18.203Z,101133.75
2022-08-14T09:56:56.913Z,101131.81
2022-08-14T09:59:41.755Z,101130.03
2022-08-14T10:02:22.137Z,101121.16
2022-08-14T10:05:10.146Z,101117.06
2022-08-14T10:07:53.732Z,101111.66
2022-08-14T10:10:41.863Z,101106.63
2022-08-14T10:13:25.996Z,101110.84
2022-08-14T10:16:03.052Z,101118.09
2022-08-14T10:18:35.251Z,101113.47
2022-08-14T10:21:16.422Z,101100.19
2022-08-14T10:23:52.550Z,101098.44
2022-08-14T10:26:28.399Z,101088.66
2022-08-14T10:29:18.699Z,101093.31
2022-08-14T10:31:59.572Z,101083.44
2022-08-14T10:34:36.567Z,101082.69
2022-08-14T10:37:15.150Z,101081.16
2022-08-14T10:40:10.707Z,101078.59
2022-08-14T10:42:53.387Z,101072.72
2022-08-14T10:45:35.694Z,101080.16
2022-08-14T10:48:23.688Z,101070.91
2022-08-14T10:51:08.485Z,101070.28
2022-08-14T10:53:40.809Z,101058.47
2022-08-14T10:56:21.561Z,101060.97
2022-08-14T10:59:08.791Z,101054.81
2022-08-14T11:01:42.935Z,101043.72
2022-08-14T11:04:30.795Z,101038.63
2022-08-14T11:07:05.877Z,101036.44
2022-08-14T11:09:41.951Z,101041.56
2022-08-14T11:12:34.372Z,101035.91
2022-08-14T11:15:09.974Z,101032.31
2022-08-14T11:17:42.070Z,101040.66
2022-08-14T11:20:30.800Z,101038.69
2022-08-14T11:23:03.154Z,101024.19
2022-08-14T11:25:44.445Z,101021.25
2022-08-14T11:28:48.613Z,101024.38
2022-08-14T11:31:23.974Z,101016.50
2022-08-14T11:33:58.482Z,101011.38
2022-08-14T11:37:02.340Z,101017.78
2022-08-14T11:39:35.050Z,101016.53
2022-08-14T11:42:56.240Z,101013.19
2022-08-14T11:45:17.061Z,100993.88
2022-08-14T11:48:12.575Z,100995.53
2022-08-14T11:50:50.666Z,101000.63
2022-08-14T11:53:33.337Z,100993.41
2022-08-14T11:56:06.493Z,100978.13
2022-08-14T11:58:43.542Z,100988.78
2022-08-14T12:01:15.871Z,100980.47
2022-08-14T12:03:52.144Z,100986.69
2022-08-14T12:06:39.389Z,100978.56
2022-08-14T12:09:15.225Z,100978.34
2022-08-14T12:11:51.472Z,100983.13
2022-08-14T12:14:30.950Z,100983.81
2022-08-14T12:17:11.750Z,100968.28
2022-08-14T12:20:06.470Z,100969.44
2022-08-14T12:22:44.546Z,100967.19
2022-08-14T12:25:24.899Z,100963.81
2022-08-14T12:28:01.654Z,100952.88
2022-08-14T12:30:44.441Z,100949.00
2022-08-14T12:33:34.053Z,100934.09
2022-08-14T12:36:20.964Z,100937.63
2022-08-14T12:38:55.068Z,100924.69
2022-08-14T12:41:37.215Z,100922.19
2022-08-14T12:44:09.459Z,100933.84
2022-08-14T12:46:43.373Z,100911.19
2022-08-14T12:49:18.894Z,100898.53
2022-08-14T12:51:59.693Z,100892.00
2022-08-14T12:54:32.620Z,100889.56
2022-08-14T12:57:19.390Z,100878.78
2022-08-14T12:59:53.565Z,100887.13
2022-08-14T13:02:27.614Z,100889.09
2022-08-14T13:04:59.846Z,100889.63
2022-08-14T13:07:33.239Z,100892.88
2022-08-14T13:10:47.218Z,100885.56
2022-08-14T13:13:15.613Z,100884.88
2022-08-14T13:15:57.193Z,100874.84
2022-08-14T13:18:31.671Z,100865.50
2022-08-14T13:21:05.687Z,100855.84
2022-08-14T13:23:41.129Z,100871.97
2022-08-14T13:26:17.370Z,100855.47
2022-08-14T13:29:02.446Z,100869.88
2022-08-14T13:31:39.105Z,100866.31
2022-08-14T13:34:16.156Z,100864.44
2022-08-14T13:36:54.693Z,100853.97
2022-08-14T13:39:36.432Z,100863.84
2022-08-14T13:42:13.436Z,100848.38
2022-08-14T13:44:46.198Z,100840.31
2022-08-14T13:47:20.162Z,100831.03
2022-08-14T13:49:57.571Z,100828.81
2022-08-14T13:52:55.526Z,100826.75
2022-08-14T13:55:30.635Z,100816.97
2022-08-14T13:58:05.202Z,100809.56
2022-08-14T14:00:53.137Z,100804.34
2022-08-14T14:05:59.063Z,100792.59
2022-08-14T14:08:46.778Z,100783.34
2022-08-14T14:11:24.286Z,100777.53
2022-08-14T14:14:00.002Z,100790.56
2022-08-14T14:16:33.036Z,100792.31
2022-08-14T14:19:09.379Z,100786.09
2022-08-14T14:21:42.494Z,100793.94
2022-08-14T14:24:15.371Z,100789.72
2022-08-14T14:26:50.205Z,100789.25
2022-08-14T14:29:26.371Z,100787.59
2022-08-14T14:32:02.039Z,100784.47
2022-08-14T14:34:37.799Z,100787.63
2022-08-14T14:37:15.613Z,100774.19
2022-08-14T14:40:52.662Z,100763.31
2022-08-14T14:42:53.262Z,100758.38
2022-08-14T14:45:28.394Z,100772.94
2022-08-14T14:48:00.990Z,100763.44
2022-08-14T14:50:34.138Z,100756.47
2022-08-14T14:53:13.254Z,100741.78
2022-08-14T14:56:46.625Z,100740.13
2022-08-14T14:58:41.997Z,100749.13
2022-08-14T15:01:15.885Z,100751.34
2022-08-14T15:03:48.152Z,100748.09
2022-08-14T15:06:29.492Z,100749.47
2022-08-14T15:09:04.692Z,100745.84
2022-08-14T15:11:37.085Z,100743.78
2022-08-14T15:14:55.246Z,100748.59
2022-08-14T15:17:02.847Z,100747.41
2022-08-14T15:19:35.450Z,100743.81
2022-08-14T15:22:10.442Z,100739.16
2022-08-14T15:24:46.553Z,100740.16
2022-08-14T15:27:26.172Z,100742.09
2022-08-14T15:29:59.565Z,100732.09
2022-08-14T15:32:31.741Z,100725.38
2022-08-14T15:35:04.862Z,100725.00
2022-08-14T15:37:44.415Z,100714.53
2022-08-14T15:40:22.179Z,100711.41
2022-08-14T15:42:54.750Z,100720.09
2022-08-14T15:45:28.043Z,100711.34
2022-08-14T15:48:02.117Z,100691.91
2022-08-14T15:50:36.272Z,100712.03
2022-08-14T15:53:09.220Z,100701.31
2022-08-14T15:55:44.281Z,100693.66
2022-08-14T15:58:16.976Z,100686.06
2022-08-14T16:01:10.688Z,100693.19
2022-08-14T16:03:46.321Z,100694.81
2022-08-14T16:06:20.902Z,100689.72
2022-08-14T16:08:58.719Z,100687.84
2022-08-14T16:11:32.940Z,100682.97
2022-08-14T16:14:06.782Z,100683.44
2022-08-14T16:16:51.597Z,100680.66
2022-08-14T16:19:31.929Z,100680.06
2022-08-14T16:22:58.063Z,100676.19
2022-08-14T16:25:05.725Z,100674.13
2022-08-14T16:27:41.364Z,100674.91
2022-08-14T16:30:25.184Z,100667.03
2022-08-14T16:33:01.298Z,100670.81
2022-08-14T16:35:42.697Z,100661.75
2022-08-14T16:38:46.472Z,100656.81
2022-08-14T16:41:26.523Z,100651.41
2022-08-14T16:44:21.893Z,100648.16
2022-08-14T16:47:22.641Z,100649.47
2022-08-14T16:50:04.502Z,100654.19
2022-08-14T16:52:44.295Z,100656.97
2022-08-14T16:55:18.145Z,100661.00
2022-08-14T16:57:58.504Z,100652.81
2022-08-14T17:00:44.084Z,100652.69
2022-08-14T17:03:17.186Z,100654.41
2022-08-14T17:05:49.401Z,100647.66
2022-08-14T17:08:41.882Z,100637.50
2022-08-14T17:11:15.420Z,100644.56
2022-08-14T17:14:00.518Z,100642.00
2022-08-14T17:16:39.181Z,100638.34
2022-08-14T17:19:14.192Z,100633.78
2022-08-14T17:21:52.346Z,100633.38
2022-08-14T17:24:57.896Z,100634.59
2022-08-14T17:27:23.112Z,100634.50
2022-08-14T17:29:57.772Z,100629.78
2022-08-14T17:32:56.178Z,100631.94
2022-08-14T17:35:58.159Z,100629.41
2022-08-14T17:38:39.581Z,100630.28
2022-08-14T17:41:32.984Z,100626.88
2022-08-14T17:44:34.359Z,100629.59
2022-08-14T17:47:17.811Z,100636.16
2022-08-14T17:49:52.316Z,100638.28
2022-08-14T17:52:34.853Z,100635.59
2022-08-14T17:56:01.428Z,100642.84
2022-08-14T17:58:20.351Z,100631.91
2022-08-14T18:01:04.675Z,100632.22
2022-08-14T18:03:50.677Z,100631.47
2022-08-14T18:06:39.592Z,100629.19
2022-08-14T18:09:25.159Z,100629.63
2022-08-14T18:12:07.412Z,100636.72
2022-08-14T18:14:48.950Z,100635.59
2022-08-14T18:17:26.108Z,100631.75
2022-08-14T18:19:58.872Z,100635.59
2022-08-14T18:22:39.452Z,100634.31
2022-08-14T18:25:18.338Z,100630.22
2022-08-14T18:27:52.641Z,100643.13
2022-08-14T18:30:33.163Z,100635.47
2022-08-14T18:33:22.926Z,100630.63
2022-08-14T18:35:59.313Z,100637.44
2022-08-14T18:38:46.472Z,100629.88
2022-08-14T18:41:37.412Z,100634.81
2022-08-14T18:44:11.111Z,100633.78
2022-08-14T18:47:10.181Z,100636.78
2022-08-14T18:49:57.863Z,100632.94
2022-08-14T18:52:41.703Z,100632.06
2022-08-14T18:55:18.969Z,100633.34
2022-08-14T18:57:58.268Z,100633.63
2022-08-14T19:00:33.798Z,100636.59
2022-08-14T19:03:33.815Z,100634.19
2022-08-14T19:06:10.870Z,100633.75
2022-08-14T19:08:50.498Z,100631.72
2022-08-14T19:11:32.470Z,100626.75
2022-08-14T19:14:07.227Z,100626.28
2022-08-14T19:16:42.944Z,100625.09
2022-08-14T19:19:20.082Z,100624.38
2022-08-14T19:21:57.212Z,100620.09
2022-08-14T19:24:44.199Z,100632.00
2022-08-14T19:27:37.792Z,100629.59
2022-08-14T19:30:19.863Z,100629.84
2022-08-14T19:32:57.869Z,100622.19
2022-08-14T19:35:49.964Z,100632.38
2022-08-14T19:38:55.062Z,100635.59
2022-08-14T19:41:34.038Z,100624.25
2022-08-14T19:44:20.123Z,100621.94
2022-08-14T19:47:04.888Z,100621.50
2022-08-14T19:50:30.555Z,100622.75
2022-08-14T19:52:37.363Z,100623.25
2022-08-14T19:55:20.403Z,100620.81
2022-08-14T19:58:07.442Z,100622.06
2022-08-14T20:00:56.010Z,100619.03
2022-08-14T20:04:00.375Z,100625.66
2022-08-14T20:06:46.596Z,100625.91
2022-08-14T20:11:02.962Z,100618.13
2022-08-14T20:12:29.194Z,100628.16
2022-08-14T20:15:15.404Z,100620.47
2022-08-14T20:17:53.524Z,100622.31
2022-08-14T20:20:31.630Z,100620.88
2022-08-14T20:23:16.640Z,100624.66
2022-08-14T20:25:56.897Z,100621.38
2022-08-14T20:28:32.822Z,100622.38
2022-08-14T20:31:18.712Z,100622.63
2022-08-14T20:34:08.002Z,100622.88
2022-08-14T20:37:10.435Z,100619.34
2022-08-14T20:39:54.600Z,100620.19
2022-08-14T20:42:50.447Z,100614.09
2022-08-14T20:45:27.583Z,100616.06
2022-08-14T20:48:01.823Z,100618.63
2022-08-14T20:50:44.900Z,100622.28
2022-08-14T20:53:36.567Z,100624.00
2022-08-14T20:56:30.333Z,100626.81
2022-08-14T20:59:25.748Z,100622.66
2022-08-14T21:02:00.499Z,100619.97
2022-08-14T21:05:00.710Z,100614.38
2022-08-14T21:07:36.147Z,100615.50
2022-08-14T21:10:36.030Z,100615.16
2022-08-14T21:14:09.260Z,100618.19
2022-08-14T21:16:33.196Z,100608.94
2022-08-14T21:19:02.287Z,100607.47
2022-08-14T21:21:41.743Z,100615.06
2022-08-14T21:24:38.792Z,100614.59
2022-08-14T21:27:22.792Z,100606.66
2022-08-14T21:29:56.478Z,100610.81
2022-08-14T21:32:47.343Z,100610.47
2022-08-14T21:35:23.026Z,100609.84
2022-08-14T21:37:57.132Z,100609.84
2022-08-14T21:40:40.254Z,100601.31
2022-08-14T21:43:20.236Z,100600.94
2022-08-14T21:45:58.765Z,100597.78
2022-08-14T21:48:34.085Z,100600.72
2022-08-14T21:51:54.235Z,100602.81
2022-08-14T21:54:01.398Z,100600.09
2022-08-14T21:56:41.923Z,100598.03
2022-08-14T21:59:34.182Z,100599.25
2022-08-14T22:02:08.035Z,100591.56
2022-08-14T22:05:03.548Z,100601.44
2022-08-14T22:07:36.837Z,100610.09
2022-08-14T22:10:14.238Z,100609.25
2022-08-14T22:13:00.324Z,100597.03
2022-08-14T22:15:33.385Z,100598.13
2022-08-14T22:18:06.378Z,100601.91
2022-08-14T22:20:41.080Z,100595.91
2022-08-14T22:23:13.531Z,100597.00
2022-08-14T22:25:46.221Z,100590.19
2022-08-14T22:28:32.933Z,100592.97
2022-08-14T22:31:18.392Z,100591.28
2022-08-14T22:33:57.779Z,100586.16
2022-08-14T22:36:49.055Z,100586.38
2022-08-14T22:40:54.002Z,100587.44
2022-08-14T22:42:22.941Z,100593.28
2022-08-14T22:44:56.746Z,100587.19
2022-08-14T22:47:34.562Z,100578.91
2022-08-14T22:50:29.089Z,100574.63
2022-08-14T22:53:06.682Z,100579.38
2022-08-14T22:55:40.186Z,100579.63
2022-08-14T22:58:17.090Z,100573.16
2022-08-14T23:00:49.796Z,100580.25
2022-08-14T23:03:23.111Z,100575.97
2022-08-14T23:05:55.106Z,100570.00
2022-08-14T23:08:59.358Z,100565.72
2022-08-14T23:11:19.453Z,100562.56
2022-08-14T23:13:54.838Z,100570.72
2022-08-14T23:16:26.836Z,100564.03
2022-08-14T23:18:58.963Z,100557.81
2022-08-14T23:21:31.080Z,100560.25
2022-08-14T23:24:06.114Z,100553.78
2022-08-14T23:26:47.792Z,100559.16
2022-08-14T23:29:22.080Z,100557.22
2022-08-14T23:31:56.968Z,100557.22
2022-08-14T23:34:31.328Z,100556.34
2022-08-14T23:37:04.632Z,100548.19
2022-08-14T23:39:39.237Z,100550.03
2022-08-14T23:42:17.968Z,100548.19
2022-08-14T23:44:50.697Z,100540.91
2022-08-14T23:47:26.425Z,100544.31
2022-08-14T23:50:07.556Z,100535.53
2022-08-14T23:53:06.812Z,100534.03
2022-08-14T23:55:34.432Z,100528.06
2022-08-14T23:58:07.712Z,100520.88
